sensor_id;sensor_type;location;lat;lon;timestamp;pressure;altitude;pressure_sealevel;temperature;humidity
62201;BME280;48197;42.732;27.192;2023-04-29T00:01:03;99904.28;;;4.70;100.00
62201;BME280;48197;42.732;27.192;2023-04-29T00:03:30;99910.09;;;4.68;100.00
62201;BME280;48197;42.732;27.192;2023-04-29T00:05:59;99901.53;;;4.70;100.00
62201;BME280;48197;42.732;27.192;2023-04-29T00:08:26;99904.06;;;4.79;100.00
62201;BME280;48197;42.732;27.192;2023-04-29T00:10:53;99908.09;;;4.85;100.00
62201;BME280;48197;42.732;27.192;2023-04-29T00:13:20;99909.97;;;4.81;100.00
62201;BME280;48197;42.732;27.192;2023-04-29T00:15:47;99906.00;;;4.78;100.00
62201;BME280;48197;42.732;27.192;2023-04-29T00:18:14;99904.97;;;4.67;100.00
62201;BME280;48197;42.732;27.192;2023-04-29T00:20:41;99906.72;;;4.20;100.00
62201;BME280;48197;42.732;27.192;2023-04-29T00:23:08;99911.03;;;3.70;100.00
62201;BME280;48197;42.732;27.192;2023-04-29T00:25:33;99915.06;;;3.28;100.00
62201;BME280;48197;42.732;27.192;2023-04-29T00:28:46;99918.28;;;3.02;100.00
62201;BME280;48197;42.732;27.192;2023-04-29T00:31:04;99918.38;;;2.78;100.00
62201;BME280;48197;42.732;27.192;2023-04-29T00:33:31;99914.00;;;2.61;100.00
62201;BME280;48197;42.732;27.192;2023-04-29T00:35:58;99912.47;;;2.48;100.00
62201;BME280;48197;42.732;27.192;2023-04-29T00:38:25;99910.75;;;2.43;100.00
62201;BME280;48197;42.732;27.192;2023-04-29T00:40:52;99923.59;;;2.42;100.00
62201;BME280;48197;42.732;27.192;2023-04-29T00:43:18;99920.06;;;2.54;100.00
62201;BME280;48197;42.732;27.192;2023-04-29T00:45:45;99919.81;;;2.59;100.00
62201;BME280;48197;42.732;27.192;2023-04-29T00:48:12;99910.56;;;2.64;100.00
62201;BME280;48197;42.732;27.192;2023-04-29T00:50:40;99906.34;;;2.66;100.00
62201;BME280;48197;42.732;27.192;2023-04-29T00:53:08;99910.56;;;2.64;100.00
62201;BME280;48197;42.732;27.192;2023-04-29T00:55:34;99912.06;;;2.61;100.00
62201;BME280;48197;42.732;27.192;2023-04-29T00:58:02;99920.97;;;2.58;100.00
62201;BME280;48197;42.732;27.192;2023-04-29T01:00:29;99905.84;;;2.49;100.00
62201;BME280;48197;42.732;27.192;2023-04-29T01:02:56;99908.47;;;2.45;100.00
62201;BME280;48197;42.732;27.192;2023-04-29T01:05:23;99911.50;;;2.56;100.00
62201;BME280;48197;42.732;27.192;2023-04-29T01:10:53;99910.97;;;2.50;100.00
62201;BME280;48197;42.732;27.192;2023-04-29T01:13:30;99904.13;;;2.56;100.00
62201;BME280;48197;42.732;27.192;2023-04-29T01:16:07;99896.63;;;2.53;100.00
62201;BME280;48197;42.732;27.192;2023-04-29T01:18:39;99907.00;;;2.48;100.00
62201;BME280;48197;42.732;27.192;2023-04-29T01:21:06;99904.63;;;2.46;100.00
62201;BME280;48197;42.732;27.192;2023-04-29T01:23:33;99898.72;;;2.44;100.00
62201;BME280;48197;42.732;27.192;2023-04-29T01:26:00;99900.19;;;2.41;100.00
62201;BME280;48197;42.732;27.192;2023-04-29T01:39:13;99909.53;;;2.69;100.00
62201;BME280;48197;42.732;27.192;2023-04-29T01:42:23;99905.88;;;2.77;100.00
62201;BME280;48197;42.732;27.192;2023-04-29T01:44:31;99905.19;;;2.80;100.00
62201;BME280;48197;42.732;27.192;2023-04-29T01:46:58;99907.22;;;2.83;100.00
62201;BME280;48197;42.732;27.192;2023-04-29T01:49:26;99905.53;;;2.78;100.00
62201;BME280;48197;42.732;27.192;2023-04-29T01:51:54;99901.91;;;2.74;100.00
62201;BME280;48197;42.732;27.192;2023-04-29T01:54:21;99904.94;;;2.85;100.00
62201;BME280;48197;42.732;27.192;2023-04-29T01:56:47;99897.19;;;2.87;100.00
62201;BME280;48197;42.732;27.192;2023-04-29T01:59:13;99903.81;;;2.86;100.00
62201;BME280;48197;42.732;27.192;2023-04-29T02:01:40;99902.78;;;2.78;100.00
62201;BME280;48197;42.732;27.192;2023-04-29T02:04:07;99898.63;;;2.69;100.00
62201;BME280;48197;42.732;27.192;2023-04-29T02:06:35;99898.88;;;2.63;100.00
62201;BME280;48197;42.732;27.192;2023-04-29T02:09:01;99905.03;;;2.60;100.00
62201;BME280;48197;42.732;27.192;2023-04-29T02:11:28;99903.31;;;2.56;100.00
62201;BME280;48197;42.732;27.192;2023-04-29T02:13:55;99903.56;;;2.51;100.00
62201;BME280;48197;42.732;27.192;2023-04-29T02:16:23;99907.09;;;2.51;100.00
62201;BME280;48197;42.732;27.192;2023-04-29T02:18:49;99908.69;;;2.52;100.00
62201;BME280;48197;42.732;27.192;2023-04-29T02:21:15;99909.81;;;2.51;100.00
62201;BME280;48197;42.732;27.192;2023-04-29T02:23:42;99903.47;;;2.47;100.00
62201;BME280;48197;42.732;27.192;2023-04-29T02:26:08;99893.47;;;2.39;100.00
62201;BME280;48197;42.732;27.192;2023-04-29T02:28:36;99901.91;;;2.34;100.00
62201;BME280;48197;42.732;27.192;2023-04-29T02:31:02;99896.69;;;2.29;100.00
62201;BME280;48197;42.732;27.192;2023-04-29T02:33:29;99889.66;;;2.15;100.00
62201;BME280;48197;42.732;27.192;2023-04-29T02:35:56;99892.06;;;2.04;100.00
62201;BME280;48197;42.732;27.192;2023-04-29T02:38:24;99886.28;;;1.94;100.00
62201;BME280;48197;42.732;27.192;2023-04-29T02:40:51;99887.19;;;1.86;100.00
62201;BME280;48197;42.732;27.192;2023-04-29T02:43:18;99887.75;;;1.79;100.00
62201;BME280;48197;42.732;27.192;2023-04-29T02:45:45;99889.03;;;1.69;100.00
62201;BME280;48197;42.732;27.192;2023-04-29T02:48:11;99882.09;;;1.59;100.00
62201;BME280;48197;42.732;27.192;2023-04-29T02:50:38;99882.41;;;1.58;100.00
62201;BME280;48197;42.732;27.192;2023-04-29T02:53:05;99880.84;;;1.57;100.00
62201;BME280;48197;42.732;27.192;2023-04-29T02:55:31;99881.53;;;1.54;100.00
62201;BME280;48197;42.732;27.192;2023-04-29T02:57:58;99881.06;;;2.01;100.00
62201;BME280;48197;42.732;27.192;2023-04-29T03:00:24;99886.72;;;2.89;100.00
62201;BME280;48197;42.732;27.192;2023-04-29T03:02:51;99876.13;;;3.63;100.00
62201;BME280;48197;42.732;27.192;2023-04-29T03:05:18;99883.69;;;4.21;100.00
62201;BME280;48197;42.732;27.192;2023-04-29T03:07:45;99881.28;;;4.55;100.00
62201;BME280;48197;42.732;27.192;2023-04-29T03:10:12;99884.09;;;4.78;100.00
62201;BME280;48197;42.732;27.192;2023-04-29T03:12:38;99888.38;;;4.99;100.00
62201;BME280;48197;42.732;27.192;2023-04-29T03:15:06;99885.41;;;5.07;100.00
62201;BME280;48197;42.732;27.192;2023-04-29T03:17:33;99886.59;;;5.06;100.00
62201;BME280;48197;42.732;27.192;2023-04-29T03:20:00;99889.31;;;5.06;100.00
62201;BME280;48197;42.732;27.192;2023-04-29T03:22:27;99889.31;;;5.06;100.00
62201;BME280;48197;42.732;27.192;2023-04-29T03:24:54;99888.97;;;5.08;100.00
62201;BME280;48197;42.732;27.192;2023-04-29T03:27:21;99892.06;;;5.06;100.00
62201;BME280;48197;42.732;27.192;2023-04-29T03:29:47;99890.78;;;5.00;100.00
62201;BME280;48197;42.732;27.192;2023-04-29T03:32:14;99892.84;;;5.07;100.00
62201;BME280;48197;42.732;27.192;2023-04-29T03:34:41;99890.63;;;5.13;100.00
62201;BME280;48197;42.732;27.192;2023-04-29T03:37:08;99887.28;;;5.23;100.00
62201;BME280;48197;42.732;27.192;2023-04-29T03:39:35;99858.41;;;5.06;100.00
62201;BME280;48197;42.732;27.192;2023-04-29T03:42:01;99900.06;;;5.38;100.00
62201;BME280;48197;42.732;27.192;2023-04-29T03:44:28;99901.38;;;5.44;100.00
62201;BME280;48197;42.732;27.192;2023-04-29T03:46:55;99903.44;;;5.51;100.00
62201;BME280;48197;42.732;27.192;2023-04-29T03:49:22;99907.50;;;5.61;100.00
62201;BME280;48197;42.732;27.192;2023-04-29T03:51:49;99902.94;;;5.68;100.00
62201;BME280;48197;42.732;27.192;2023-04-29T03:54:16;99911.75;;;5.81;100.00
62201;BME280;48197;42.732;27.192;2023-04-29T03:56:42;99907.97;;;5.89;100.00
62201;BME280;48197;42.732;27.192;2023-04-29T03:59:09;99915.44;;;5.92;100.00
62201;BME280;48197;42.732;27.192;2023-04-29T04:01:36;99910.84;;;5.97;100.00
62201;BME280;48197;42.732;27.192;2023-04-29T04:04:02;99917.19;;;6.01;100.00
62201;BME280;48197;42.732;27.192;2023-04-29T04:06:29;99910.28;;;6.10;100.00
62201;BME280;48197;42.732;27.192;2023-04-29T04:08:57;99913.63;;;6.27;100.00
62201;BME280;48197;42.732;27.192;2023-04-29T04:11:46;99903.72;;;6.45;100.00
62201;BME280;48197;42.732;27.192;2023-04-29T04:14:12;99908.69;;;6.66;100.00
62201;BME280;48197;42.732;27.192;2023-04-29T04:16:39;99914.38;;;6.81;100.00
62201;BME280;48197;42.732;27.192;2023-04-29T04:19:09;99908.28;;;6.98;100.00
62201;BME280;48197;42.732;27.192;2023-04-29T04:21:35;99921.06;;;7.21;100.00
62201;BME280;48197;42.732;27.192;2023-04-29T04:24:02;99915.00;;;7.42;100.00
62201;BME280;48197;42.732;27.192;2023-04-29T04:26:29;99913.44;;;7.85;100.00
62201;BME280;48197;42.732;27.192;2023-04-29T04:28:55;99908.59;;;8.27;98.91
62201;BME280;48197;42.732;27.192;2023-04-29T04:31:22;99901.31;;;8.56;97.45
62201;BME280;48197;42.732;27.192;2023-04-29T04:33:48;99913.16;;;8.60;94.71
62201;BME280;48197;42.732;27.192;2023-04-29T04:36:14;99910.00;;;8.65;89.93
62201;BME280;48197;42.732;27.192;2023-04-29T04:38:41;99908.88;;;8.81;86.80
62201;BME280;48197;42.732;27.192;2023-04-29T04:41:07;99912.09;;;8.93;87.34
62201;BME280;48197;42.732;27.192;2023-04-29T04:43:34;99908.97;;;8.98;87.85
62201;BME280;48197;42.732;27.192;2023-04-29T04:46:08;99910.16;;;9.08;88.21
62201;BME280;48197;42.732;27.192;2023-04-29T04:48:34;99909.41;;;9.18;88.19
62201;BME280;48197;42.732;27.192;2023-04-29T04:51:08;99911.41;;;9.29;87.84
62201;BME280;48197;42.732;27.192;2023-04-29T04:53:35;99913.41;;;9.39;85.72
62201;BME280;48197;42.732;27.192;2023-04-29T04:56:02;99909.06;;;9.45;83.57
62201;BME280;48197;42.732;27.192;2023-04-29T04:58:29;99909.47;;;9.58;84.39
62201;BME280;48197;42.732;27.192;2023-04-29T05:00:56;99907.91;;;9.71;83.99
62201;BME280;48197;42.732;27.192;2023-04-29T05:03:23;99909.06;;;9.81;81.45
62201;BME280;48197;42.732;27.192;2023-04-29T05:05:56;99902.00;;;9.91;77.36
62201;BME280;48197;42.732;27.192;2023-04-29T05:08:23;99903.91;;;10.40;79.50
62201;BME280;48197;42.732;27.192;2023-04-29T05:10:50;99903.00;;;10.72;76.79
62201;BME280;48197;42.732;27.192;2023-04-29T05:13:17;99900.94;;;10.94;75.42
62201;BME280;48197;42.732;27.192;2023-04-29T05:15:44;99899.53;;;11.35;74.55
62201;BME280;48197;42.732;27.192;2023-04-29T05:18:11;99908.13;;;12.03;69.53
62201;BME280;48197;42.732;27.192;2023-04-29T05:20:37;99896.44;;;12.61;65.28
62201;BME280;48197;42.732;27.192;2023-04-29T05:23:06;99905.91;;;12.98;64.23
62201;BME280;48197;42.732;27.192;2023-04-29T05:25:34;99900.25;;;12.74;60.87
62201;BME280;48197;42.732;27.192;2023-04-29T05:28:01;99899.91;;;12.34;63.39
62201;BME280;48197;42.732;27.192;2023-04-29T05:30:28;99909.44;;;12.33;65.72
62201;BME280;48197;42.732;27.192;2023-04-29T05:32:54;99904.84;;;12.16;63.70
62201;BME280;48197;42.732;27.192;2023-04-29T05:35:21;99909.84;;;11.87;63.17
62201;BME280;48197;42.732;27.192;2023-04-29T05:37:48;99910.41;;;11.63;63.92
62201;BME280;48197;42.732;27.192;2023-04-29T05:40:14;99906.66;;;11.36;65.23
62201;BME280;48197;42.732;27.192;2023-04-29T05:42:41;99904.66;;;11.33;65.21
62201;BME280;48197;42.732;27.192;2023-04-29T05:45:08;99903.91;;;11.29;59.45
62201;BME280;48197;42.732;27.192;2023-04-29T05:47:35;99893.72;;;11.11;58.93
62201;BME280;48197;42.732;27.192;2023-04-29T05:50:02;99901.56;;;11.23;59.04
62201;BME280;48197;42.732;27.192;2023-04-29T05:52:29;99896.03;;;11.23;57.36
62201;BME280;48197;42.732;27.192;2023-04-29T05:54:55;99894.09;;;11.20;57.54
62201;BME280;48197;42.732;27.192;2023-04-29T05:57:23;99901.94;;;11.29;57.55
62201;BME280;48197;42.732;27.192;2023-04-29T05:59:50;99891.25;;;11.31;57.67
62201;BME280;48197;42.732;27.192;2023-04-29T06:02:17;99893.97;;;11.42;58.00
62201;BME280;48197;42.732;27.192;2023-04-29T06:04:44;99893.41;;;11.65;57.06
62201;BME280;48197;42.732;27.192;2023-04-29T06:07:12;99891.78;;;12.16;57.71
62201;BME280;48197;42.732;27.192;2023-04-29T06:09:39;99892.47;;;12.93;53.63
62201;BME280;48197;42.732;27.192;2023-04-29T06:12:07;99889.19;;;13.83;51.14
62201;BME280;48197;42.732;27.192;2023-04-29T06:14:34;99896.53;;;14.40;46.19
62201;BME280;48197;42.732;27.192;2023-04-29T06:17:00;99896.16;;;15.51;44.89
62201;BME280;48197;42.732;27.192;2023-04-29T06:19:27;99891.00;;;16.61;40.15
62201;BME280;48197;42.732;27.192;2023-04-29T06:21:54;99889.41;;;16.89;39.12
62201;BME280;48197;42.732;27.192;2023-04-29T06:24:20;99894.69;;;17.12;39.07
62201;BME280;48197;42.732;27.192;2023-04-29T06:26:48;99894.50;;;17.58;37.86
62201;BME280;48197;42.732;27.192;2023-04-29T06:29:14;99882.00;;;18.10;36.92
62201;BME280;48197;42.732;27.192;2023-04-29T06:31:42;99877.03;;;17.67;35.84
62201;BME280;48197;42.732;27.192;2023-04-29T06:34:08;99885.53;;;16.70;35.99
62201;BME280;48197;42.732;27.192;2023-04-29T06:36:35;99891.47;;;16.13;37.64
62201;BME280;48197;42.732;27.192;2023-04-29T06:39:04;99891.59;;;16.39;37.99
62201;BME280;48197;42.732;27.192;2023-04-29T06:41:30;99892.44;;;16.94;36.77
62201;BME280;48197;42.732;27.192;2023-04-29T06:43:57;99891.47;;;16.43;36.37
62201;BME280;48197;42.732;27.192;2023-04-29T06:46:23;99887.84;;;16.29;37.73
62201;BME280;48197;42.732;27.192;2023-04-29T06:48:50;99899.25;;;15.89;41.27
62201;BME280;48197;42.732;27.192;2023-04-29T06:51:16;99888.59;;;15.35;40.69
62201;BME280;48197;42.732;27.192;2023-04-29T06:53:43;99889.84;;;14.78;42.09
62201;BME280;48197;42.732;27.192;2023-04-29T06:56:09;99882.97;;;14.82;42.13
62201;BME280;48197;42.732;27.192;2023-04-29T06:58:36;99877.22;;;14.73;43.00
62201;BME280;48197;42.732;27.192;2023-04-29T07:01:02;99882.84;;;14.89;40.48
62201;BME280;48197;42.732;27.192;2023-04-29T07:03:29;99889.59;;;14.88;39.79
62201;BME280;48197;42.732;27.192;2023-04-29T07:05:56;99880.47;;;15.24;39.65
62201;BME280;48197;42.732;27.192;2023-04-29T07:08:22;99882.84;;;16.08;39.65
62201;BME280;48197;42.732;27.192;2023-04-29T07:10:55;99881.69;;;16.80;37.71
62201;BME280;48197;42.732;27.192;2023-04-29T07:13:22;99882.84;;;17.47;36.33
62201;BME280;48197;42.732;27.192;2023-04-29T07:18:33;99871.75;;;18.73;35.28
62201;BME280;48197;42.732;27.192;2023-04-29T07:21:01;99874.03;;;18.88;32.89
62201;BME280;48197;42.732;27.192;2023-04-29T07:23:30;99870.44;;;18.87;33.32
62201;BME280;48197;42.732;27.192;2023-04-29T07:25:57;99872.44;;;19.58;32.49
62201;BME280;48197;42.732;27.192;2023-04-29T07:28:23;99868.66;;;19.74;32.76
62201;BME280;48197;42.732;27.192;2023-04-29T07:30:50;99861.38;;;20.23;31.60
62201;BME280;48197;42.732;27.192;2023-04-29T07:33:17;99864.38;;;19.20;32.50
62201;BME280;48197;42.732;27.192;2023-04-29T07:35:43;99871.78;;;18.16;32.25
62201;BME280;48197;42.732;27.192;2023-04-29T07:38:10;99864.25;;;17.79;36.06
62201;BME280;48197;42.732;27.192;2023-04-29T07:40:38;99882.38;;;18.56;33.97
62201;BME280;48197;42.732;27.192;2023-04-29T07:43:04;99878.44;;;19.29;33.06
62201;BME280;48197;42.732;27.192;2023-04-29T07:45:32;99870.91;;;19.57;33.29
62201;BME280;48197;42.732;27.192;2023-04-29T07:47:58;99865.84;;;19.74;33.05
62201;BME280;48197;42.732;27.192;2023-04-29T07:50:25;99870.84;;;19.98;32.03
62201;BME280;48197;42.732;27.192;2023-04-29T07:52:50;99869.91;;;19.83;32.50
62201;BME280;48197;42.732;27.192;2023-04-29T07:55:16;99869.47;;;18.81;33.02
62201;BME280;48197;42.732;27.192;2023-04-29T07:57:43;99858.25;;;18.15;34.47
62201;BME280;48197;42.732;27.192;2023-04-29T08:00:10;99855.81;;;18.83;36.85
62201;BME280;48197;42.732;27.192;2023-04-29T08:02:37;99860.19;;;19.65;32.51
62201;BME280;48197;42.732;27.192;2023-04-29T08:05:04;99865.41;;;19.04;31.44
62201;BME280;48197;42.732;27.192;2023-04-29T08:07:30;99863.88;;;18.37;32.32
62201;BME280;48197;42.732;27.192;2023-04-29T08:09:58;99855.66;;;18.43;34.17
62201;BME280;48197;42.732;27.192;2023-04-29T08:12:24;99847.59;;;18.23;33.75
62201;BME280;48197;42.732;27.192;2023-04-29T08:14:51;99847.25;;;19.18;33.72
62201;BME280;48197;42.732;27.192;2023-04-29T08:17:17;99839.38;;;18.94;33.68
62201;BME280;48197;42.732;27.192;2023-04-29T08:19:44;99823.72;;;19.06;33.04
62201;BME280;48197;42.732;27.192;2023-04-29T08:22:11;99828.03;;;18.98;33.27
62201;BME280;48197;42.732;27.192;2023-04-29T08:24:39;99825.84;;;18.71;35.04
62201;BME280;48197;42.732;27.192;2023-04-29T08:27:08;99820.06;;;19.37;34.68
62201;BME280;48197;42.732;27.192;2023-04-29T08:29:35;99825.88;;;19.02;34.43
62201;BME280;48197;42.732;27.192;2023-04-29T08:32:00;99821.88;;;17.80;34.84
62201;BME280;48197;42.732;27.192;2023-04-29T08:34:27;99822.91;;;17.86;34.51
62201;BME280;48197;42.732;27.192;2023-04-29T08:36:55;99821.22;;;18.11;34.17
62201;BME280;48197;42.732;27.192;2023-04-29T08:39:23;99808.81;;;18.78;35.03
62201;BME280;48197;42.732;27.192;2023-04-29T08:41:49;99811.25;;;18.23;34.32
62201;BME280;48197;42.732;27.192;2023-04-29T08:44:17;99817.50;;;18.27;35.15
62201;BME280;48197;42.732;27.192;2023-04-29T08:46:46;99804.84;;;18.44;32.93
62201;BME280;48197;42.732;27.192;2023-04-29T08:49:13;99802.34;;;18.37;32.70
62201;BME280;48197;42.732;27.192;2023-04-29T08:51:40;99801.09;;;17.68;34.18
62201;BME280;48197;42.732;27.192;2023-04-29T08:54:07;99803.97;;;17.43;35.53
62201;BME280;48197;42.732;27.192;2023-04-29T08:56:34;99800.22;;;17.84;34.83
62201;BME280;48197;42.732;27.192;2023-04-29T08:59:06;99799.44;;;17.84;35.83
62201;BME280;48197;42.732;27.192;2023-04-29T09:01:34;99800.22;;;17.84;36.96
62201;BME280;48197;42.732;27.192;2023-04-29T09:04:13;99793.09;;;18.27;35.15
62201;BME280;48197;42.732;27.192;2023-04-29T09:09:44;99789.13;;;18.69;32.27
62201;BME280;48197;42.732;27.192;2023-04-29T09:12:13;99794.88;;;18.43;34.39
62201;BME280;48197;42.732;27.192;2023-04-29T09:14:39;99784.88;;;18.33;35.25
62201;BME280;48197;42.732;27.192;2023-04-29T09:20:29;99780.38;;;18.13;35.52
62201;BME280;48197;42.732;27.192;2023-04-29T09:25:22;99784.53;;;17.87;35.32
62201;BME280;48197;42.732;27.192;2023-04-29T09:27:49;99773.00;;;17.50;35.87
62201;BME280;48197;42.732;27.192;2023-04-29T09:30:17;99765.56;;;17.69;37.37
62201;BME280;48197;42.732;27.192;2023-04-29T09:32:45;99757.25;;;17.43;36.12
62201;BME280;48197;42.732;27.192;2023-04-29T09:35:20;99758.28;;;17.71;37.43
62201;BME280;48197;42.732;27.192;2023-04-29T09:37:47;99751.78;;;18.09;38.30
62201;BME280;48197;42.732;27.192;2023-04-29T10:11:53;99718.16;;;18.22;36.60
62201;BME280;48197;42.732;27.192;2023-04-29T10:14:23;99719.66;;;18.45;35.65
62201;BME280;48197;42.732;27.192;2023-04-29T10:19:24;99727.91;;;17.95;36.94
62201;BME280;48197;42.732;27.192;2023-04-29T10:21:51;99706.47;;;17.92;37.11
62201;BME280;48197;42.732;27.192;2023-04-29T10:24:18;99708.72;;;17.85;36.49
62201;BME280;48197;42.732;27.192;2023-04-29T10:26:52;99707.88;;;17.97;36.95
62201;BME280;48197;42.732;27.192;2023-04-29T10:29:21;99705.34;;;17.90;36.27
62201;BME280;48197;42.732;27.192;2023-04-29T10:31:49;99693.47;;;18.30;37.43
62201;BME280;48197;42.732;27.192;2023-04-29T10:34:16;99699.91;;;18.17;36.39
62201;BME280;48197;42.732;27.192;2023-04-29T10:36:43;99692.47;;;18.14;37.78
62201;BME280;48197;42.732;27.192;2023-04-29T10:39:12;99688.22;;;18.41;37.30
62201;BME280;48197;42.732;27.192;2023-04-29T10:41:45;99690.34;;;18.59;35.19
62201;BME280;48197;42.732;27.192;2023-04-29T10:44:13;99682.56;;;18.01;33.71
62201;BME280;48197;42.732;27.192;2023-04-29T10:46:40;99685.72;;;18.34;35.43
62201;BME280;48197;42.732;27.192;2023-04-29T10:49:07;99684.31;;;18.29;37.07
62201;BME280;48197;42.732;27.192;2023-04-29T10:51:42;99686.75;;;18.18;33.92
62201;BME280;48197;42.732;27.192;2023-04-29T10:54:13;99691.84;;;17.88;35.75
62201;BME280;48197;42.732;27.192;2023-04-29T10:56:41;99692.00;;;18.16;34.15
62201;BME280;48197;42.732;27.192;2023-04-29T10:59:14;99687.91;;;18.39;34.68
62201;BME280;48197;42.732;27.192;2023-04-29T11:04:08;99683.53;;;19.28;35.32
62201;BME280;48197;42.732;27.192;2023-04-29T11:09:03;99679.16;;;20.10;32.98
62201;BME280;48197;42.732;27.192;2023-04-29T11:11:40;99678.28;;;19.76;33.41
62201;BME280;48197;42.732;27.192;2023-04-29T11:14:11;99665.88;;;20.20;34.88
62201;BME280;48197;42.732;27.192;2023-04-29T11:16:45;99663.53;;;21.18;34.13
62201;BME280;48197;42.732;27.192;2023-04-29T11:19:13;99647.03;;;21.74;32.65
62201;BME280;48197;42.732;27.192;2023-04-29T11:21:40;99649.16;;;21.79;32.95
62201;BME280;48197;42.732;27.192;2023-04-29T11:24:08;99655.47;;;21.89;32.12
62201;BME280;48197;42.732;27.192;2023-04-29T11:26:34;99648.75;;;21.72;31.53
62201;BME280;48197;42.732;27.192;2023-04-29T11:29:01;99642.81;;;21.55;31.79
62201;BME280;48197;42.732;27.192;2023-04-29T11:31:30;99653.50;;;21.66;31.83
62201;BME280;48197;42.732;27.192;2023-04-29T11:33:57;99649.53;;;21.57;31.40
62201;BME280;48197;42.732;27.192;2023-04-29T11:36:26;99644.31;;;21.95;31.95
62201;BME280;48197;42.732;27.192;2023-04-29T11:38:53;99647.22;;;22.00;30.68
62201;BME280;48197;42.732;27.192;2023-04-29T11:41:21;99652.97;;;21.91;29.56
62201;BME280;48197;42.732;27.192;2023-04-29T11:43:56;99642.69;;;21.10;28.90
62201;BME280;48197;42.732;27.192;2023-04-29T11:46:24;99644.78;;;20.76;30.99
62201;BME280;48197;42.732;27.192;2023-04-29T11:48:53;99634.31;;;21.25;30.07
62201;BME280;48197;42.732;27.192;2023-04-29T11:51:20;99631.41;;;20.95;28.57
62201;BME280;48197;42.732;27.192;2023-04-29T11:53:48;99638.56;;;20.96;30.17
62201;BME280;48197;42.732;27.192;2023-04-29T11:56:23;99629.59;;;21.07;29.97
62201;BME280;48197;42.732;27.192;2023-04-29T11:58:55;99623.69;;;21.44;29.67
62201;BME280;48197;42.732;27.192;2023-04-29T12:01:24;99615.00;;;22.01;29.03
62201;BME280;48197;42.732;27.192;2023-04-29T12:03:50;99611.28;;;22.75;28.47
62201;BME280;48197;42.732;27.192;2023-04-29T12:06:16;99602.69;;;22.84;28.36
62201;BME280;48197;42.732;27.192;2023-04-29T12:08:45;99604.63;;;23.87;28.07
62201;BME280;48197;42.732;27.192;2023-04-29T12:11:12;99600.50;;;22.53;28.65
62201;BME280;48197;42.732;27.192;2023-04-29T12:13:40;99608.94;;;22.53;28.05
62201;BME280;48197;42.732;27.192;2023-04-29T12:16:06;99600.13;;;22.46;27.79
62201;BME280;48197;42.732;27.192;2023-04-29T12:18:34;99604.31;;;22.20;27.63
62201;BME280;48197;42.732;27.192;2023-04-29T12:21:00;99594.81;;;22.33;28.18
62201;BME280;48197;42.732;27.192;2023-04-29T12:23:27;99601.63;;;21.67;27.81
62201;BME280;48197;42.732;27.192;2023-04-29T12:25:55;99600.66;;;21.70;28.30
62201;BME280;48197;42.732;27.192;2023-04-29T12:28:22;99592.19;;;22.14;28.19
62201;BME280;48197;42.732;27.192;2023-04-29T12:30:50;99583.97;;;21.96;28.00
62201;BME280;48197;42.732;27.192;2023-04-29T12:33:19;99591.25;;;21.58;29.08
62201;BME280;48197;42.732;27.192;2023-04-29T12:35:49;99598.53;;;21.94;28.32
62201;BME280;48197;42.732;27.192;2023-04-29T12:38:36;99589.63;;;22.46;27.27
62201;BME280;48197;42.732;27.192;2023-04-29T12:41:03;99571.00;;;22.90;26.95
62201;BME280;48197;42.732;27.192;2023-04-29T12:43:33;99578.50;;;23.39;27.37
62201;BME280;48197;42.732;27.192;2023-04-29T12:46:00;99570.97;;;23.05;27.21
62201;BME280;48197;42.732;27.192;2023-04-29T12:48:31;99574.47;;;21.78;26.89
62201;BME280;48197;42.732;27.192;2023-04-29T12:50:59;99570.78;;;21.87;28.87
62201;BME280;48197;42.732;27.192;2023-04-29T12:53:25;99558.50;;;22.35;28.52
62201;BME280;48197;42.732;27.192;2023-04-29T12:55:52;99566.28;;;22.81;27.98
62201;BME280;48197;42.732;27.192;2023-04-29T12:58:19;99557.44;;;22.32;27.49
62201;BME280;48197;42.732;27.192;2023-04-29T13:00:46;99559.53;;;21.87;29.48
62201;BME280;48197;42.732;27.192;2023-04-29T13:03:12;99554.19;;;21.89;27.99
62201;BME280;48197;42.732;27.192;2023-04-29T13:05:39;99552.38;;;22.57;28.02
62201;BME280;48197;42.732;27.192;2023-04-29T13:08:06;99547.84;;;22.24;27.43
62201;BME280;48197;42.732;27.192;2023-04-29T13:10:34;99553.22;;;21.77;28.58
62201;BME280;48197;42.732;27.192;2023-04-29T13:13:00;99547.84;;;22.09;26.95
62201;BME280;48197;42.732;27.192;2023-04-29T13:15:27;99546.84;;;22.83;27.00
62201;BME280;48197;42.732;27.192;2023-04-29T13:17:54;99547.31;;;23.22;27.17
62201;BME280;48197;42.732;27.192;2023-04-29T13:20:20;99541.13;;;23.71;27.24
62201;BME280;48197;42.732;27.192;2023-04-29T13:22:47;99527.91;;;24.20;26.97
62201;BME280;48197;42.732;27.192;2023-04-29T13:25:14;99545.81;;;23.53;28.69
62201;BME280;48197;42.732;27.192;2023-04-29T13:27:41;99538.88;;;22.61;28.72
62201;BME280;48197;42.732;27.192;2023-04-29T13:30:09;99541.88;;;21.72;28.93
62201;BME280;48197;42.732;27.192;2023-04-29T13:32:36;99540.88;;;21.30;28.96
62201;BME280;48197;42.732;27.192;2023-04-29T13:35:05;99530.88;;;21.29;28.78
62201;BME280;48197;42.732;27.192;2023-04-29T13:37:32;99530.63;;;20.88;29.88
62201;BME280;48197;42.732;27.192;2023-04-29T13:39:59;99523.09;;;20.46;30.17
62201;BME280;48197;42.732;27.192;2023-04-29T13:42:26;99512.94;;;20.49;30.41
62201;BME280;48197;42.732;27.192;2023-04-29T13:44:52;99522.44;;;20.27;31.60
62201;BME280;48197;42.732;27.192;2023-04-29T13:47:22;99523.66;;;20.59;31.13
62201;BME280;48197;42.732;27.192;2023-04-29T13:49:48;99517.94;;;20.93;30.22
62201;BME280;48197;42.732;27.192;2023-04-29T13:52:23;99510.41;;;20.99;30.09
62201;BME280;48197;42.732;27.192;2023-04-29T14:07:02;99504.22;;;21.10;29.94
62201;BME280;48197;42.732;27.192;2023-04-29T14:09:29;99498.88;;;20.97;30.94